createdAt,value
2019-04-22T00:00:32.457Z,15.58
2019-04-22T00:01:31.250Z,15.47
2019-04-22T00:02:26.455Z,15.40
2019-04-22T00:03:36.080Z,15.42
2019-04-22T00:04:40.228Z,15.31
2019-04-22T00:05:52.463Z,15.43
2019-04-22T00:06:50.308Z,15.47
2019-04-22T00:07:48.220Z,15.44
2019-04-22T00:08:49.183Z,15.29
2019-04-22T00:09:54.953Z,15.21
2019-04-22T00:10:59.000Z,15.44
2019-04-22T00:11:54.666Z,15.29
2019-04-22T00:12:54.637Z,15.31
2019-04-22T00:13:51.949Z,15.29
2019-04-22T00:14:48.500Z,15.10
2019-04-22T00:15:41.809Z,15.31
2019-04-22T00:16:51.945Z,15.19
2019-04-22T00:19:13.265Z,15.35
2019-04-22T00:20:54.444Z,15.33
2019-04-22T00:21:55.217Z,15.40
2019-04-22T00:22:51.610Z,15.27
2019-04-22T00:23:53.090Z,15.29
2019-04-22T00:24:51.227Z,15.31
2019-04-22T00:25:57.345Z,15.15
2019-04-22T00:26:50.215Z,15.09
2019-04-22T00:27:57.238Z,15.06
2019-04-22T00:29:03.950Z,15.02
2019-04-22T00:30:05.419Z,14.86
2019-04-22T00:30:51.539Z,15.00
2019-04-22T00:31:46.184Z,14.91
2019-04-22T00:32:49.516Z,14.72
2019-04-22T00:33:48.692Z,14.58
2019-04-22T00:34:48.367Z,14.78
2019-04-22T00:35:49.358Z,14.65
2019-04-22T00:36:48.278Z,14.58
2019-04-22T00:37:53.696Z,14.55
2019-04-22T00:38:54.327Z,14.72
2019-04-22T00:39:51.436Z,14.69
2019-04-22T00:40:52.580Z,14.66
2019-04-22T00:41:50.514Z,14.72
2019-04-22T00:42:53.567Z,14.50
2019-04-22T00:44:00.403Z,14.55
2019-04-22T00:44:51.750Z,14.62
2019-04-22T00:45:53.627Z,14.69
2019-04-22T00:46:55.681Z,14.60
2019-04-22T00:47:43.699Z,14.43
2019-04-22T00:48:53.439Z,14.35
2019-04-22T00:50:55.736Z,14.18
2019-04-22T00:53:11.671Z,14.33
2019-04-22T00:53:53.096Z,14.36
2019-04-22T00:54:55.803Z,14.28
2019-04-22T00:55:55.562Z,14.17
2019-04-22T00:56:50.752Z,14.04
2019-04-22T00:57:46.413Z,13.93
2019-04-22T00:58:48.484Z,14.08
2019-04-22T00:59:52.020Z,14.18
2019-04-22T01:00:58.759Z,14.08
2019-04-22T01:01:52.569Z,14.10
2019-04-22T01:02:54.321Z,14.14
2019-04-22T01:04:55.981Z,14.32
2019-04-22T01:05:48.221Z,14.43
2019-04-22T01:06:51.614Z,14.33
2019-04-22T01:07:49.953Z,14.37
2019-04-22T01:09:05.797Z,14.41
2019-04-22T01:09:52.015Z,14.33
2019-04-22T01:10:54.036Z,14.30
2019-04-22T01:11:44.603Z,14.29
2019-04-22T01:12:49.987Z,14.32
2019-04-22T01:13:50.072Z,14.25
2019-04-22T01:14:47.287Z,14.36
2019-04-22T01:15:47.556Z,14.28
2019-04-22T01:16:52.107Z,14.33
2019-04-22T01:17:52.652Z,14.33
2019-04-22T01:18:49.033Z,14.47
2019-04-22T01:19:58.706Z,14.35
2019-04-22T01:21:46.786Z,14.47
2019-04-22T01:22:50.494Z,14.43
2019-04-22T01:23:50.639Z,14.30
2019-04-22T01:24:44.873Z,14.44
2019-04-22T01:25:47.825Z,14.68
2019-04-22T01:26:38.827Z,14.44
2019-04-22T01:27:41.855Z,14.51
2019-04-22T01:28:39.542Z,14.48
2019-04-22T01:29:39.858Z,14.40
2019-04-22T01:30:35.002Z,14.29
2019-04-22T01:31:29.328Z,14.18
2019-04-22T01:32:34.421Z,14.29
2019-04-22T01:33:33.114Z,14.26
2019-04-22T01:34:40.358Z,14.10
2019-04-22T01:35:35.802Z,13.99
2019-04-22T01:36:42.947Z,13.96
2019-04-22T01:37:45.882Z,13.96
2019-04-22T01:38:56.325Z,14.04
2019-04-22T01:39:50.066Z,14.04
2019-04-22T01:40:54.152Z,13.93
2019-04-22T01:41:55.394Z,13.97
2019-04-22T01:42:57.570Z,13.86
2019-04-22T01:43:58.825Z,14.07
2019-04-22T01:45:06.964Z,13.90
2019-04-22T01:45:54.389Z,14.04
2019-04-22T01:46:49.400Z,14.07
2019-04-22T01:47:53.300Z,14.04
2019-04-22T01:48:54.311Z,13.95
2019-04-22T01:49:49.516Z,13.93
2019-04-22T01:50:49.644Z,13.83
2019-04-22T01:52:52.107Z,13.54
2019-04-22T01:53:50.282Z,13.53
2019-04-22T01:54:54.640Z,13.54
2019-04-22T01:55:55.541Z,13.46
2019-04-22T01:57:47.614Z,13.56
2019-04-22T01:58:44.316Z,13.56
2019-04-22T01:59:40.382Z,13.46
2019-04-22T02:00:58.238Z,13.38
2019-04-22T02:01:50.959Z,13.46
2019-04-22T02:02:49.288Z,13.65
2019-04-22T02:03:57.942Z,13.56
2019-04-22T02:04:53.292Z,13.31
2019-04-22T02:05:50.534Z,13.39
2019-04-22T02:06:48.210Z,13.41
2019-04-22T02:07:48.256Z,13.50
2019-04-22T02:08:52.730Z,13.39
2019-04-22T02:09:53.312Z,13.47
2019-04-22T02:11:54.460Z,13.59
2019-04-22T02:12:53.228Z,13.49
2019-04-22T02:13:52.270Z,13.47
2019-04-22T02:15:06.587Z,13.37
2019-04-22T02:15:53.797Z,13.37
2019-04-22T02:17:58.036Z,13.27
2019-04-22T02:18:53.091Z,13.31
2019-04-22T02:19:53.092Z,13.18
2019-04-22T02:20:50.324Z,13.03
2019-04-22T02:21:51.662Z,13.09
2019-04-22T02:23:00.520Z,12.98
2019-04-22T02:23:56.005Z,13.04
2019-04-22T02:24:54.287Z,13.00
2019-04-22T02:25:57.939Z,13.19
2019-04-22T02:26:51.917Z,13.18
2019-04-22T02:27:56.502Z,13.20
2019-04-22T02:28:45.787Z,13.33
2019-04-22T02:29:47.657Z,13.15
2019-04-22T02:31:18.684Z,13.08
2019-04-22T02:31:59.551Z,13.01
2019-04-22T02:33:18.413Z,12.86
2019-04-22T02:36:08.620Z,13.00
2019-04-22T02:36:54.879Z,12.97
2019-04-22T02:38:04.713Z,12.97
2019-04-22T02:39:55.439Z,13.12
2019-04-22T02:41:52.490Z,13.18
2019-04-22T02:43:01.954Z,13.00
2019-04-22T02:44:03.174Z,12.87
2019-04-22T02:46:13.455Z,12.97
2019-04-22T02:47:08.396Z,13.00
2019-04-22T02:49:07.404Z,13.01
2019-04-22T02:50:01.785Z,12.80
2019-04-22T02:51:02.545Z,12.83
2019-04-22T02:51:43.493Z,12.79
2019-04-22T02:52:51.004Z,12.93
2019-04-22T02:54:27.069Z,12.98
2019-04-22T02:54:54.561Z,12.87
2019-04-22T02:56:01.692Z,12.87
2019-04-22T02:56:48.788Z,12.91
2019-04-22T02:57:47.129Z,12.80
2019-04-22T02:59:12.390Z,12.87
2019-04-22T03:00:01.489Z,12.85
2019-04-22T03:01:01.184Z,12.85
2019-04-22T03:01:51.410Z,12.83
2019-04-22T03:03:18.344Z,12.65
2019-04-22T03:04:57.981Z,12.58
2019-04-22T03:07:58.236Z,12.58
2019-04-22T03:09:01.338Z,12.62
2019-04-22T03:09:59.586Z,12.49
2019-04-22T03:11:04.029Z,12.58
2019-04-22T03:12:06.230Z,12.55
2019-04-22T03:12:56.334Z,12.45
2019-04-22T03:14:03.297Z,12.49
2019-04-22T03:14:48.363Z,12.40
2019-04-22T03:15:59.609Z,12.31
2019-04-22T03:17:10.291Z,12.24
2019-04-22T03:17:58.446Z,12.20
2019-04-22T03:19:05.808Z,12.27
2019-04-22T03:21:00.109Z,12.28
2019-04-22T03:21:54.868Z,12.15
2019-04-22T03:22:59.969Z,12.17
2019-04-22T03:24:08.877Z,12.21
2019-04-22T03:27:44.166Z,12.21
2019-04-22T03:28:57.152Z,12.25
2019-04-22T03:30:16.349Z,12.13
2019-04-22T03:34:39.547Z,11.97
2019-04-22T03:36:26.171Z,12.07
2019-04-22T03:39:19.450Z,12.06
2019-04-22T03:40:07.235Z,12.09
2019-04-22T03:41:13.481Z,12.00
2019-04-22T03:42:06.795Z,12.06
2019-04-22T03:42:56.189Z,12.02
2019-04-22T03:44:08.275Z,12.02
2019-04-22T03:45:00.387Z,12.06
2019-04-22T03:45:51.693Z,12.09
2019-04-22T03:47:02.414Z,12.03
2019-04-22T03:49:10.874Z,12.03
2019-04-22T03:50:04.435Z,12.07
2019-04-22T03:50:42.514Z,12.07
2019-04-22T03:53:01.438Z,12.06
2019-04-22T03:54:02.774Z,12.06
2019-04-22T03:55:53.157Z,12.00
2019-04-22T03:57:26.554Z,12.02
2019-04-22T03:58:56.939Z,11.90
2019-04-22T04:02:15.555Z,12.13
2019-04-22T04:02:56.062Z,12.03
2019-04-22T04:04:02.979Z,11.88
2019-04-22T04:04:49.529Z,11.94
2019-04-22T04:05:57.640Z,11.95
2019-04-22T04:08:53.289Z,12.02
2019-04-22T04:09:59.335Z,12.02
2019-04-22T04:10:53.236Z,11.87
2019-04-22T04:12:58.141Z,11.81
2019-04-22T04:14:01.757Z,11.78
2019-04-22T04:15:05.220Z,11.75
2019-04-22T04:15:52.604Z,11.77
2019-04-22T04:16:56.438Z,11.70
2019-04-22T04:17:51.457Z,11.63
2019-04-22T04:20:05.500Z,11.69
2019-04-22T04:21:09.265Z,11.77
2019-04-22T04:21:50.452Z,11.99
2019-04-22T04:23:04.852Z,11.88
2019-04-22T04:24:25.795Z,11.80
2019-04-22T04:25:52.051Z,11.77
2019-04-22T04:27:20.067Z,11.90
2019-04-22T04:30:14.438Z,11.70
2019-04-22T04:30:48.777Z,11.87
2019-04-22T04:32:56.710Z,11.97
2019-04-22T04:34:00.445Z,11.91
2019-04-22T04:36:01.822Z,11.90
2019-04-22T04:37:18.423Z,11.83
2019-04-22T04:38:58.403Z,12.02
2019-04-22T04:40:48.964Z,11.90
2019-04-22T04:42:55.763Z,11.90
2019-04-22T04:44:11.192Z,12.00
2019-04-22T04:45:16.382Z,12.07
2019-04-22T04:47:06.013Z,11.99
2019-04-22T04:48:02.557Z,12.04
2019-04-22T04:49:00.435Z,12.20
2019-04-22T04:53:06.298Z,12.25
2019-04-22T04:54:01.218Z,12.24
2019-04-22T04:55:18.532Z,12.27
2019-04-22T04:55:53.274Z,12.31
2019-04-22T04:56:51.355Z,12.60
2019-04-22T05:00:25.796Z,12.32
2019-04-22T05:01:52.556Z,12.40
2019-04-22T05:02:52.270Z,12.39
2019-04-22T05:04:00.227Z,12.35
2019-04-22T05:05:50.577Z,12.20
2019-04-22T05:09:53.177Z,12.21
2019-04-22T05:11:05.587Z,12.29
2019-04-22T05:12:12.479Z,12.31
2019-04-22T05:15:00.832Z,12.64
2019-04-22T05:15:59.762Z,12.73
2019-04-22T05:17:57.823Z,12.90
2019-04-22T05:18:50.922Z,13.01
2019-04-22T05:19:50.245Z,13.15
2019-04-22T05:20:59.723Z,13.16
2019-04-22T05:21:55.902Z,13.16
2019-04-22T05:22:44.793Z,13.30
2019-04-22T05:25:05.970Z,13.47
2019-04-22T05:25:40.672Z,13.67
2019-04-22T05:26:52.395Z,13.85
2019-04-22T05:27:45.358Z,14.05
2019-04-22T05:28:48.143Z,14.25
2019-04-22T05:30:03.758Z,14.62
2019-04-22T05:30:39.522Z,15.09
2019-04-22T05:31:52.242Z,15.54
2019-04-22T05:33:02.985Z,15.62
2019-04-22T05:33:48.430Z,15.84
2019-04-22T05:34:48.411Z,16.32
2019-04-22T05:35:46.426Z,16.58
2019-04-22T05:36:49.427Z,16.72
2019-04-22T05:37:50.273Z,16.87
2019-04-22T05:38:46.281Z,16.74
2019-04-22T05:39:42.490Z,16.89
2019-04-22T05:40:45.184Z,17.06
2019-04-22T05:41:48.297Z,17.06
2019-04-22T05:42:42.685Z,17.02
2019-04-22T05:45:08.247Z,17.19
2019-04-22T05:45:44.494Z,16.97
2019-04-22T05:46:39.295Z,17.05
2019-04-22T05:47:46.177Z,16.99
2019-04-22T05:48:51.941Z,17.05
2019-04-22T05:49:41.606Z,17.22
2019-04-22T05:50:45.091Z,17.31
2019-04-22T05:51:42.331Z,17.39
2019-04-22T05:52:43.141Z,17.11
2019-04-22T05:53:32.527Z,16.94
2019-04-22T05:54:48.707Z,17.36
2019-04-22T05:55:46.901Z,17.16
2019-04-22T05:56:40.767Z,17.39
2019-04-22T05:57:47.180Z,17.24
2019-04-22T05:58:54.113Z,17.38
2019-04-22T05:59:45.762Z,17.29
2019-04-22T06:01:14.414Z,17.22
2019-04-22T06:01:51.555Z,17.01
2019-04-22T06:04:45.069Z,16.94
2019-04-22T06:05:47.627Z,16.79
2019-04-22T06:06:44.946Z,16.65
2019-04-22T06:07:38.714Z,16.60
2019-04-22T06:08:48.673Z,16.72
2019-04-22T06:09:43.359Z,17.04
2019-04-22T06:10:50.384Z,17.29
2019-04-22T06:11:48.564Z,17.09
2019-04-22T06:12:38.917Z,17.12
2019-04-22T06:13:40.461Z,17.24
2019-04-22T06:14:38.882Z,17.42
2019-04-22T06:15:37.236Z,17.71
2019-04-22T06:16:44.363Z,18.19
2019-04-22T06:17:47.308Z,18.29
2019-04-22T06:18:38.648Z,18.20
2019-04-22T06:19:47.507Z,18.23
2019-04-22T06:20:50.076Z,18.37
2019-04-22T06:21:46.308Z,18.56
2019-04-22T06:23:46.395Z,18.88
2019-04-22T06:24:42.017Z,18.90
2019-04-22T06:26:54.412Z,18.90
2019-04-22T06:27:49.589Z,18.47
2019-04-22T06:29:41.856Z,18.66
2019-04-22T06:30:54.609Z,18.13
2019-04-22T06:32:15.294Z,18.26
2019-04-22T06:32:40.218Z,18.59
2019-04-22T06:33:48.406Z,18.56
2019-04-22T06:34:42.181Z,18.25
2019-04-22T06:35:48.664Z,18.04
2019-04-22T06:36:46.413Z,18.20
2019-04-22T06:37:55.498Z,18.59
2019-04-22T06:38:46.673Z,18.38
2019-04-22T06:39:45.262Z,18.11
2019-04-22T06:40:46.578Z,18.33
2019-04-22T06:41:50.581Z,18.33
2019-04-22T06:42:49.983Z,18.50
2019-04-22T06:43:43.283Z,18.07
2019-04-22T06:44:47.840Z,18.04
2019-04-22T06:45:41.572Z,18.44
2019-04-22T06:46:47.455Z,18.56
2019-04-22T06:48:44.112Z,18.75
2019-04-22T06:49:41.906Z,18.98
2019-04-22T06:50:52.800Z,18.89
2019-04-22T06:51:46.836Z,18.90
2019-04-22T06:52:50.272Z,18.63
2019-04-22T06:53:41.149Z,18.52
2019-04-22T06:55:05.968Z,18.33
2019-04-22T06:55:47.083Z,18.49
2019-04-22T06:56:43.155Z,18.49
2019-04-22T06:57:43.471Z,18.50
2019-04-22T06:58:46.068Z,18.16
2019-04-22T06:59:49.872Z,18.03
2019-04-22T07:00:42.846Z,17.94
2019-04-22T07:01:43.271Z,17.71
2019-04-22T07:02:57.812Z,18.01
2019-04-22T07:03:50.531Z,18.19
2019-04-22T07:04:44.956Z,18.34
2019-04-22T07:05:59.998Z,18.88
2019-04-22T07:06:48.313Z,19.11
2019-04-22T07:07:51.908Z,19.04
2019-04-22T07:09:49.721Z,19.11
2019-04-22T07:11:04.592Z,19.31
2019-04-22T07:11:43.762Z,19.19
2019-04-22T07:12:41.883Z,19.33
2019-04-22T07:13:43.001Z,19.16
2019-04-22T07:14:47.484Z,18.88
2019-04-22T07:16:05.288Z,18.89
2019-04-22T07:16:49.804Z,18.65
2019-04-22T07:17:50.835Z,18.49
2019-04-22T07:18:44.785Z,18.45
2019-04-22T07:19:45.428Z,18.23
2019-04-22T07:20:44.242Z,18.18
2019-04-22T07:21:46.910Z,18.03
2019-04-22T07:22:41.718Z,18.25
2019-04-22T07:24:17.840Z,18.41
2019-04-22T07:24:45.852Z,18.65
2019-04-22T07:25:40.717Z,18.78
2019-04-22T07:26:45.114Z,18.90
2019-04-22T07:27:40.628Z,18.70
2019-04-22T07:28:37.265Z,19.44
2019-04-22T07:29:46.889Z,19.40
2019-04-22T07:31:02.427Z,19.63
2019-04-22T07:31:42.805Z,19.70
2019-04-22T07:33:04.514Z,19.66
2019-04-22T07:33:43.815Z,20.06
2019-04-22T07:34:46.138Z,20.18
2019-04-22T07:37:43.572Z,19.92
2019-04-22T07:38:36.166Z,19.91
2019-04-22T07:39:44.239Z,19.95
2019-04-22T07:40:45.638Z,19.79
2019-04-22T07:41:49.438Z,19.81
2019-04-22T07:42:41.736Z,19.88
2019-04-22T07:43:59.755Z,19.41
2019-04-22T07:44:44.700Z,19.66
2019-04-22T07:45:42.734Z,19.67
2019-04-22T07:46:50.083Z,19.71
2019-04-22T07:47:49.932Z,19.67
2019-04-22T07:49:43.364Z,19.37
2019-04-22T07:51:44.657Z,19.52
2019-04-22T07:52:41.453Z,19.24
2019-04-22T07:53:45.423Z,19.04
2019-04-22T07:54:47.965Z,19.24
2019-04-22T07:55:38.184Z,19.40
2019-04-22T07:56:48.623Z,19.48
2019-04-22T07:57:44.463Z,19.63
2019-04-22T07:58:42.105Z,19.69
2019-04-22T07:59:45.586Z,19.30
2019-04-22T08:00:38.563Z,19.82
2019-04-22T08:01:47.146Z,19.94
2019-04-22T08:02:44.096Z,20.56
2019-04-22T08:03:53.348Z,20.13
2019-04-22T08:04:54.234Z,20.19
2019-04-22T08:05:51.589Z,20.02
2019-04-22T08:06:46.361Z,19.89
2019-04-22T08:07:46.790Z,19.95
2019-04-22T08:08:45.680Z,20.03
2019-04-22T08:09:50.977Z,20.25
2019-04-22T08:10:49.228Z,20.19
2019-04-22T08:12:47.282Z,20.16
2019-04-22T08:13:42.495Z,20.11
2019-04-22T08:15:51.307Z,20.48
2019-04-22T08:16:43.962Z,20.78
2019-04-22T08:18:05.039Z,20.87
2019-04-22T08:18:39.538Z,20.93
2019-04-22T08:19:44.744Z,20.96
2019-04-22T08:20:44.096Z,20.81
2019-04-22T08:21:46.322Z,20.87
2019-04-22T08:22:45.136Z,20.82
2019-04-22T08:23:46.538Z,21.20
2019-04-22T08:24:51.463Z,21.39
2019-04-22T08:25:43.128Z,21.80
2019-04-22T08:27:42.859Z,21.85
2019-04-22T08:28:45.801Z,22.30
2019-04-22T08:29:54.682Z,22.17
2019-04-22T08:31:40.053Z,22.51
2019-04-22T08:32:41.723Z,22.75
2019-04-22T08:33:44.516Z,22.15
2019-04-22T08:34:42.541Z,22.15
2019-04-22T08:36:58.756Z,22.07
2019-04-22T08:37:51.232Z,21.99
2019-04-22T08:38:48.725Z,22.28
2019-04-22T08:39:40.632Z,22.80
2019-04-22T08:40:56.132Z,23.12
2019-04-22T08:41:37.534Z,22.76
2019-04-22T08:42:50.029Z,22.78
2019-04-22T08:45:04.770Z,22.76
2019-04-22T08:45:46.144Z,22.83
2019-04-22T08:46:44.301Z,22.59
2019-04-22T08:47:41.580Z,22.83
2019-04-22T08:48:48.125Z,22.91
2019-04-22T08:49:50.272Z,22.65
2019-04-22T08:50:47.033Z,22.39
2019-04-22T08:51:56.219Z,22.93
2019-04-22T08:52:40.645Z,22.99
2019-04-22T08:53:48.260Z,23.10
2019-04-22T08:54:43.689Z,23.56
2019-04-22T08:55:47.877Z,23.48
2019-04-22T08:56:46.054Z,23.95
2019-04-22T08:58:04.893Z,24.03
2019-04-22T08:58:42.221Z,23.77
2019-04-22T08:59:46.592Z,23.61
2019-04-22T09:00:51.346Z,23.83
2019-04-22T09:01:37.819Z,23.76
2019-04-22T09:02:49.874Z,23.92
2019-04-22T09:03:49.264Z,23.73
2019-04-22T09:04:42.125Z,24.30
2019-04-22T09:05:57.756Z,24.45
2019-04-22T09:08:01.465Z,24.26
2019-04-22T09:08:45.287Z,24.18
2019-04-22T09:09:47.260Z,24.77
2019-04-22T09:10:46.807Z,24.47
2019-04-22T09:12:58.033Z,24.73
2019-04-22T09:13:45.161Z,25.01
2019-04-22T09:14:43.419Z,25.07
2019-04-22T09:15:45.464Z,25.22
2019-04-22T09:16:44.738Z,25.25
2019-04-22T09:17:40.313Z,25.59
2019-04-22T09:18:45.951Z,25.75
2019-04-22T09:19:40.388Z,25.68
2019-04-22T09:20:48.695Z,25.68
2019-04-22T09:21:50.651Z,25.36
2019-04-22T09:22:42.677Z,26.19
2019-04-22T09:23:44.406Z,25.80
2019-04-22T09:24:44.167Z,25.84
2019-04-22T09:25:41.895Z,26.56
2019-04-22T09:26:43.194Z,26.74
2019-04-22T09:27:47.926Z,27.20
2019-04-22T09:28:44.737Z,27.21
2019-04-22T09:30:51.386Z,27.32
2019-04-22T09:31:46.627Z,26.92
2019-04-22T09:32:44.844Z,26.90
2019-04-22T09:33:38.612Z,26.71
2019-04-22T09:34:43.303Z,26.90
2019-04-22T09:35:45.050Z,26.90
2019-04-22T09:36:41.524Z,27.27
2019-04-22T09:38:45.053Z,28.11
2019-04-22T09:39:41.382Z,27.05
2019-04-22T09:40:43.229Z,27.37
2019-04-22T09:41:46.689Z,26.60
2019-04-22T09:42:45.444Z,27.63
2019-04-22T09:43:50.839Z,27.58
2019-04-22T09:44:40.384Z,26.73
2019-04-22T09:45:43.417Z,27.30
2019-04-22T09:46:41.016Z,27.26
2019-04-22T09:47:53.866Z,27.58
2019-04-22T09:48:46.410Z,27.26
2019-04-22T09:49:51.822Z,27.51
2019-04-22T09:50:43.283Z,27.35
2019-04-22T09:51:48.526Z,27.59
2019-04-22T09:52:43.573Z,27.73
2019-04-22T09:53:49.769Z,28.23
2019-04-22T09:54:50.957Z,28.57
2019-04-22T09:55:43.042Z,27.92
2019-04-22T09:56:43.951Z,27.60
2019-04-22T09:57:43.178Z,27.93
2019-04-22T09:58:46.304Z,28.07
2019-04-22T09:59:48.456Z,28.07
2019-04-22T10:00:43.999Z,28.56
2019-04-22T10:01:50.365Z,27.80
2019-04-22T10:02:48.941Z,28.37
2019-04-22T10:03:44.737Z,28.39
2019-04-22T10:04:39.840Z,28.14
2019-04-22T10:05:49.857Z,28.67
2019-04-22T10:06:37.583Z,28.63
2019-04-22T10:07:43.224Z,28.62
2019-04-22T10:08:52.946Z,29.19
2019-04-22T10:10:41.772Z,28.57
2019-04-22T10:12:42.609Z,28.33
2019-04-22T10:13:48.000Z,28.42
2019-04-22T10:14:48.017Z,28.69
2019-04-22T10:15:39.665Z,29.19
2019-04-22T10:16:43.742Z,28.57
2019-04-22T10:17:47.785Z,28.57
2019-04-22T10:19:40.897Z,28.79
2019-04-22T10:21:44.677Z,28.08
2019-04-22T10:22:46.194Z,27.83
2019-04-22T10:23:45.433Z,27.92
2019-04-22T10:24:43.251Z,28.52
2019-04-22T10:25:47.323Z,27.93
2019-04-22T10:27:46.260Z,29.44
2019-04-22T10:28:44.477Z,29.72
2019-04-22T10:29:47.256Z,29.49
2019-04-22T10:30:47.131Z,29.61
2019-04-22T10:31:43.323Z,29.63
2019-04-22T10:32:46.183Z,29.47
2019-04-22T10:33:36.279Z,29.39
2019-04-22T10:34:26.977Z,29.10
2019-04-22T10:35:19.904Z,29.12
2019-04-22T10:36:17.281Z,29.05
2019-04-22T10:37:19.012Z,29.14
2019-04-22T10:38:16.643Z,29.10
2019-04-22T10:39:16.350Z,29.13
2019-04-22T10:40:17.762Z,29.17
2019-04-22T10:41:16.724Z,29.17
2019-04-22T10:42:17.467Z,28.79
2019-04-22T10:43:17.049Z,29.32
2019-04-22T10:44:17.127Z,29.91
2019-04-22T10:45:16.583Z,29.41
2019-04-22T10:46:17.961Z,29.29
2019-04-22T10:47:16.337Z,29.88
2019-04-22T10:48:16.512Z,29.59
2019-04-22T10:49:16.336Z,29.79
2019-04-22T10:50:16.607Z,29.35
2019-04-22T10:51:16.901Z,29.39
2019-04-22T10:52:16.570Z,29.78
2019-04-22T10:53:17.605Z,29.57
2019-04-22T10:54:17.651Z,29.53
2019-04-22T10:55:17.253Z,29.45
2019-04-22T10:56:16.946Z,29.63
2019-04-22T10:57:16.337Z,29.81
2019-04-22T10:58:16.951Z,30.13
2019-04-22T10:59:16.528Z,30.10
2019-04-22T11:00:17.568Z,29.24
2019-04-22T11:01:17.790Z,29.27
2019-04-22T11:02:17.327Z,28.97
2019-04-22T11:03:16.342Z,29.16
2019-04-22T11:04:17.437Z,28.49
2019-04-22T11:05:16.740Z,28.66
2019-04-22T11:06:17.119Z,28.85
2019-04-22T11:07:17.345Z,29.32
2019-04-22T11:08:26.054Z,29.54
2019-04-22T11:09:16.462Z,29.54
2019-04-22T11:10:34.872Z,30.19
2019-04-22T11:11:31.540Z,30.13
2019-04-22T11:12:20.618Z,30.16
2019-04-22T11:13:17.853Z,29.32
2019-04-22T11:14:16.845Z,29.34
2019-04-22T11:15:16.342Z,29.17
2019-04-22T11:16:17.454Z,29.19
2019-04-22T11:17:17.681Z,29.42
2019-04-22T11:18:17.688Z,28.63
2019-04-22T11:19:17.355Z,28.76
2019-04-22T11:20:17.569Z,28.60
2019-04-22T11:21:17.805Z,28.98
2019-04-22T11:22:22.080Z,29.41
2019-04-22T11:23:16.481Z,29.27
2019-04-22T11:24:16.841Z,29.22
2019-04-22T11:25:16.331Z,29.13
2019-04-22T11:26:17.628Z,28.57
2019-04-22T11:27:16.971Z,28.59
2019-04-22T11:28:17.844Z,29.19
2019-04-22T11:29:17.399Z,28.89
2019-04-22T11:30:20.017Z,29.17
2019-04-22T11:31:16.667Z,29.17
2019-04-22T11:32:16.333Z,29.17
2019-04-22T11:33:16.457Z,29.17
2019-04-22T11:34:17.197Z,29.53
2019-04-22T11:35:16.325Z,28.94
2019-04-22T11:36:17.491Z,29.07
2019-04-22T11:37:16.637Z,28.74
2019-04-22T11:38:17.280Z,28.35
2019-04-22T11:39:17.016Z,28.20
2019-04-22T11:40:24.035Z,28.37
2019-04-22T11:41:16.836Z,28.51
2019-04-22T11:42:16.432Z,28.96
2019-04-22T11:43:16.489Z,28.97
2019-04-22T11:44:17.140Z,29.19
2019-04-22T11:45:17.451Z,29.31
2019-04-22T11:46:17.633Z,29.38
2019-04-22T11:47:17.169Z,29.45
2019-04-22T11:48:17.620Z,29.35
2019-04-22T11:49:16.406Z,28.75
2019-04-22T11:50:17.409Z,28.44
2019-04-22T11:51:16.307Z,28.70
2019-04-22T11:52:17.282Z,28.54
2019-04-22T11:53:16.737Z,28.81
2019-04-22T11:54:16.965Z,28.33
2019-04-22T11:55:17.060Z,28.51
2019-04-22T11:56:16.836Z,28.35
2019-04-22T11:57:17.047Z,28.62
2019-04-22T11:58:17.027Z,28.22
2019-04-22T11:59:16.296Z,28.19
2019-04-22T12:00:16.862Z,28.26
2019-04-22T12:01:16.896Z,28.37
2019-04-22T12:02:18.062Z,28.69
2019-04-22T12:03:16.859Z,28.52
2019-04-22T12:04:16.289Z,28.52
2019-04-22T12:05:17.505Z,28.42
2019-04-22T12:06:17.808Z,28.59
2019-04-22T12:07:17.163Z,28.15
2019-04-22T12:08:17.347Z,28.02
2019-04-22T12:09:17.603Z,28.26
2019-04-22T12:10:27.234Z,28.01
2019-04-22T12:11:16.608Z,28.32
2019-04-22T12:12:16.274Z,28.51
2019-04-22T12:13:17.783Z,28.64
2019-04-22T12:14:16.272Z,28.19
2019-04-22T12:15:16.922Z,28.59
2019-04-22T12:16:17.161Z,28.60
2019-04-22T12:17:16.261Z,28.60
2019-04-22T12:18:17.312Z,27.92
2019-04-22T12:19:16.257Z,27.77
2019-04-22T12:20:17.989Z,28.00
2019-04-22T12:21:17.110Z,28.29
2019-04-22T12:22:17.329Z,28.20
2019-04-22T12:23:17.032Z,28.42
2019-04-22T12:24:17.216Z,27.83
2019-04-22T12:25:30.003Z,28.15
2019-04-22T12:26:19.033Z,28.33
2019-04-22T12:27:18.619Z,28.42
2019-04-22T12:28:17.202Z,28.52
2019-04-22T12:29:17.177Z,28.54
2019-04-22T12:30:16.702Z,28.44
2019-04-22T12:31:17.501Z,28.38
2019-04-22T12:32:17.681Z,28.14
2019-04-22T12:33:17.047Z,28.19
2019-04-22T12:34:17.315Z,27.93
2019-04-22T12:35:17.641Z,28.02
2019-04-22T12:36:16.211Z,28.14
2019-04-22T12:37:27.426Z,28.07
2019-04-22T12:38:16.987Z,28.02
2019-04-22T12:39:17.707Z,28.32
2019-04-22T12:40:29.360Z,28.02
2019-04-22T12:41:17.804Z,28.04
2019-04-22T12:42:17.463Z,27.95
2019-04-22T12:43:18.603Z,28.07
2019-04-22T12:44:16.185Z,28.30
2019-04-22T12:45:16.345Z,28.25
2019-04-22T12:46:16.420Z,27.95
2019-04-22T12:47:16.177Z,28.05
2019-04-22T12:48:17.084Z,28.00
2019-04-22T12:49:16.409Z,28.22
2019-04-22T12:50:22.442Z,28.02
2019-04-22T12:51:16.160Z,28.60
2019-04-22T12:52:24.071Z,28.49
2019-04-22T12:53:18.809Z,28.89
2019-04-22T12:54:17.099Z,28.25
2019-04-22T12:55:17.427Z,27.70
2019-04-22T12:56:17.417Z,27.55
2019-04-22T12:57:16.840Z,27.67
2019-04-22T12:58:16.133Z,28.19
2019-04-22T12:59:17.291Z,28.27
2019-04-22T13:00:17.551Z,28.20
2019-04-22T13:01:16.998Z,28.08
2019-04-22T13:02:16.117Z,27.85
2019-04-22T13:03:16.113Z,27.60
2019-04-22T13:04:19.475Z,27.45
2019-04-22T13:05:16.366Z,27.68
2019-04-22T13:06:17.493Z,27.90
2019-04-22T13:07:16.097Z,27.92
2019-04-22T13:08:16.091Z,27.85
2019-04-22T13:09:17.761Z,27.65
2019-04-22T13:10:16.079Z,27.60
2019-04-22T13:11:19.660Z,27.82
2019-04-22T13:12:17.188Z,28.17
2019-04-22T13:13:16.064Z,28.15
2019-04-22T13:14:16.815Z,27.96
2019-04-22T13:15:16.120Z,27.93
2019-04-22T13:16:17.475Z,28.02
2019-04-22T13:17:17.122Z,27.93
2019-04-22T13:18:27.000Z,28.01
2019-04-22T13:19:18.902Z,28.11
2019-04-22T13:20:18.238Z,27.90
2019-04-22T13:21:16.021Z,28.08
2019-04-22T13:22:16.947Z,27.77
2019-04-22T13:23:16.010Z,27.58
2019-04-22T13:24:19.530Z,27.70
2019-04-22T13:25:15.997Z,27.60
2019-04-22T13:26:16.950Z,27.71
2019-04-22T13:27:17.215Z,27.54
2019-04-22T13:28:15.981Z,27.64
2019-04-22T13:29:16.878Z,27.48
2019-04-22T13:30:16.400Z,27.60
2019-04-22T13:31:17.767Z,27.42
2019-04-22T13:32:16.572Z,27.60
2019-04-22T13:33:16.818Z,27.55
2019-04-22T13:34:21.600Z,27.52
2019-04-22T13:35:18.521Z,27.71
2019-04-22T13:36:18.647Z,27.55
2019-04-22T13:37:17.002Z,27.52
2019-04-22T13:38:17.388Z,27.47
2019-04-22T13:39:16.877Z,27.48
2019-04-22T13:40:16.904Z,27.20
2019-04-22T13:41:26.116Z,27.33
2019-04-22T13:42:20.000Z,27.37
2019-04-22T13:43:16.741Z,27.33
2019-04-22T13:44:16.710Z,27.26
2019-04-22T13:45:15.873Z,27.14
2019-04-22T13:46:16.766Z,27.17
2019-04-22T13:47:34.897Z,27.02
2019-04-22T13:48:31.163Z,26.84
2019-04-22T13:49:49.457Z,26.92
2019-04-22T13:50:49.878Z,26.97
2019-04-22T13:51:45.202Z,26.89
2019-04-22T13:52:46.397Z,27.14
2019-04-22T13:54:50.442Z,27.15
2019-04-22T13:56:38.709Z,26.84
2019-04-22T13:57:32.540Z,26.89
2019-04-22T13:58:31.549Z,26.88
2019-04-22T13:59:22.995Z,26.90
2019-04-22T14:00:16.334Z,27.10
2019-04-22T14:01:16.539Z,27.27
2019-04-22T14:02:16.890Z,26.92
2019-04-22T14:03:16.251Z,26.73
2019-04-22T14:04:16.419Z,26.70
2019-04-22T14:05:16.920Z,26.74
2019-04-22T14:06:16.458Z,26.70
2019-04-22T14:07:16.619Z,26.59
2019-04-22T14:08:16.557Z,26.58
2019-04-22T14:09:18.179Z,26.56
2019-04-22T14:10:16.496Z,26.96
2019-04-22T14:11:28.645Z,26.83
2019-04-22T14:12:17.801Z,26.51
2019-04-22T14:13:16.167Z,26.53
2019-04-22T14:14:15.745Z,26.40
2019-04-22T14:15:15.939Z,26.44
2019-04-22T14:16:17.099Z,26.58
2019-04-22T14:17:16.779Z,26.53
2019-04-22T14:18:16.823Z,26.75
2019-04-22T14:19:16.038Z,26.73
2019-04-22T14:20:15.576Z,26.83
2019-04-22T14:21:16.878Z,26.85
2019-04-22T14:22:15.972Z,26.85
2019-04-22T14:23:17.101Z,26.71